Decoded Metar for KXNO ( in ) (IATA:) | Meteo·Mobile Aviation Weather
aviador You're here:

KXNO Decoded Metar

in
Report Time2019-02-16 17:21:00
UTC Time2019-02-16 17:33:15
Flight Rules mvfr MVFR
Wind240° at 11 kt
W.Decomp.*RWY 24: 11.0 kt HW 0 kt LCW
RWY 23: 10.8 kt HW 1.9 kt RCW
W.Rank240° ranks 13
Current wind is above 240° avg. (8.0)
Visibility9999 m
Phenomena:N/A
Clouds:Overcast 016 Hf
Ceiling1,600 ft
Temp20°C
Dew Point20°C (100% RH)
AAT19.7°C
QNH1007 hPa
Raw Report
SPECI KXNO 161721Z AUTO 24011KT 10SM OVC016 20/20 A2974 RMK AO2 SLP072
$=

Extra information for KXNO:More info

Social comments